Time;durP1;ratioP1;P1;durP2;ratioP2;P2;SDS_P1;SDS_P2;PMS_P1;PMS_P2;Temp;Humidity;BMP_temperature;BMP_pressure;BME280_temperature;BME280_humidity;BME280_pressure;Samples;Min_cycle;Max_cycle;Signal;HPM_P1;HPM_P2
2023/03/18 00:01:15;;;;;;;;;;;10.70;99.20;;;;;;5061584;28;19977;-77
2023/03/18 00:03:40;;;;;;;;;;;10.80;99.20;;;;;;5067373;28;20375;-77
2023/03/18 00:06:10;;;;;;;;;;;10.70;99.30;;;;;;5061066;28;19912;-77
2023/03/18 00:08:36;;;;;;;;;;;10.70;99.20;;;;;;5072675;28;19912;-77
2023/03/18 00:11:04;;;;;;;;;;;10.70;99.30;;;;;;5062384;28;20365;-77
2023/03/18 00:13:30;;;;;;;;;;;10.70;99.30;;;;;;5049900;28;19916;-77
2023/03/18 00:15:56;;;;;;;;;;;10.70;99.30;;;;;;5053384;28;20010;-77
2023/03/18 00:18:21;;;;;;;;;;;10.60;99.40;;;;;;5067586;28;20585;-77
2023/03/18 00:20:47;;;;;;;;;;;10.70;99.40;;;;;;5064706;28;19924;-77
2023/03/18 00:23:12;;;;;;;;;;;10.70;99.40;;;;;;5067490;28;19959;-77
2023/03/18 00:25:38;;;;;;;;;;;10.60;99.40;;;;;;5061765;28;19919;-77
2023/03/18 00:28:05;;;;;;;;;;;10.60;99.50;;;;;;5067660;28;19913;-77
2023/03/18 00:30:30;;;;;;;;;;;10.60;99.40;;;;;;5061738;28;19908;-76
2023/03/18 00:32:56;;;;;;;;;;;10.60;99.50;;;;;;5067762;28;19908;-77
2023/03/18 00:35:26;;;;;;;;;;;10.60;99.40;;;;;;5055524;28;20365;-77
2023/03/18 00:37:54;;;;;;;;;;;10.60;99.60;;;;;;5067408;28;19912;-77
2023/03/18 00:40:26;;;;;;;;;;;10.60;99.50;;;;;;5061402;28;19920;-77
2023/03/18 00:42:56;;;;;;;;;;;10.60;99.50;;;;;;5061922;28;19912;-77
2023/03/18 00:45:22;;;;;;;;;;;10.60;99.50;;;;;;5061511;28;19912;-77
2023/03/18 00:47:49;;;;;;;;;;;10.60;99.50;;;;;;5067516;28;19919;-77
2023/03/18 00:50:15;;;;;;;;;;;10.60;99.50;;;;;;5064607;28;19912;-77
2023/03/18 00:52:40;;;;;;;;;;;10.50;99.40;;;;;;5067192;28;19978;-77
2023/03/18 00:55:07;;;;;;;;;;;10.50;99.50;;;;;;5061517;28;20489;-77
2023/03/18 00:57:32;;;;;;;;;;;10.50;99.50;;;;;;5061690;28;19908;-77
2023/03/18 00:59:58;;;;;;;;;;;10.50;99.40;;;;;;5061338;28;19909;-77
2023/03/18 01:02:24;;;;;;;;;;;10.50;99.60;;;;;;5067004;28;19920;-77
2023/03/18 01:04:50;;;;;;;;;;;10.50;99.50;;;;;;5062045;28;19965;-77
2023/03/18 01:07:15;;;;;;;;;;;10.40;99.50;;;;;;5065464;28;19954;-77
2023/03/18 01:09:42;;;;;;;;;;;10.40;99.50;;;;;;5063452;28;19976;-77
2023/03/18 01:12:08;;;;;;;;;;;10.40;99.60;;;;;;5065997;28;19912;-75
2023/03/18 01:14:35;;;;;;;;;;;10.40;99.80;;;;;;5063738;28;19989;-77
2023/03/18 01:17:01;;;;;;;;;;;10.40;99.70;;;;;;5068443;28;20039;-77
2023/03/18 01:19:28;;;;;;;;;;;10.40;99.90;;;;;;5069240;28;20416;-76
2023/03/18 01:21:53;;;;;;;;;;;10.30;99.90;;;;;;5069189;28;19936;-77
2023/03/18 01:24:19;;;;;;;;;;;10.30;99.90;;;;;;5069337;28;19959;-77
2023/03/18 01:26:45;;;;;;;;;;;10.30;99.90;;;;;;5066262;28;19912;-76
2023/03/18 01:29:11;;;;;;;;;;;10.30;99.90;;;;;;5059388;28;20752;-77
2023/03/18 01:31:37;;;;;;;;;;;10.30;99.90;;;;;;5065861;28;19926;-77
2023/03/18 01:34:02;;;;;;;;;;;10.20;99.90;;;;;;5069231;28;19966;-76
2023/03/18 01:36:28;;;;;;;;;;;10.20;99.90;;;;;;5064334;28;19917;-77
2023/03/18 01:38:55;;;;;;;;;;;10.20;99.90;;;;;;5070378;28;20680;-77
2023/03/18 01:41:20;;;;;;;;;;;10.20;99.90;;;;;;5054509;28;19923;-77
2023/03/18 01:43:46;;;;;;;;;;;10.20;99.90;;;;;;5070751;28;19912;-77
2023/03/18 01:46:30;;;;;;;;;;;10.20;99.90;;;;;;5064381;28;19965;-76
2023/03/18 01:48:56;;;;;;;;;;;10.20;99.90;;;;;;5060176;28;19919;-77
2023/03/18 01:51:24;;;;;;;;;;;10.20;99.90;;;;;;5067682;28;19913;-76
2023/03/18 01:53:49;;;;;;;;;;;10.20;99.90;;;;;;5069948;28;19948;-77
2023/03/18 01:56:16;;;;;;;;;;;10.20;99.90;;;;;;5064492;28;19916;-77
2023/03/18 01:58:43;;;;;;;;;;;10.10;99.90;;;;;;5069635;28;19989;-77
2023/03/18 02:01:13;;;;;;;;;;;10.10;99.80;;;;;;5063723;28;20391;-77
2023/03/18 02:03:40;;;;;;;;;;;10.10;99.80;;;;;;5069956;28;19948;-77
2023/03/18 02:06:05;;;;;;;;;;;10.10;99.70;;;;;;5063088;28;19915;-77
2023/03/18 02:08:31;;;;;;;;;;;10.10;99.70;;;;;;5070131;28;19983;-77
2023/03/18 02:10:56;;;;;;;;;;;10.10;99.70;;;;;;5064572;28;19916;-77
2023/03/18 02:13:22;;;;;;;;;;;10.10;99.70;;;;;;5072597;28;20348;-77
2023/03/18 02:15:51;;;;;;;;;;;10.10;99.70;;;;;;5063957;28;19916;-77
2023/03/18 02:18:26;;;;;;;;;;;10.10;99.60;;;;;;5069551;28;20016;-77
2023/03/18 02:20:58;;;;;;;;;;;10.10;99.70;;;;;;5066506;28;19920;-77
2023/03/18 02:23:28;;;;;;;;;;;10.10;99.60;;;;;;5068983;28;19930;-77
2023/03/18 02:25:59;;;;;;;;;;;10.10;99.60;;;;;;5063755;28;19995;-76
2023/03/18 02:28:26;;;;;;;;;;;10.10;99.60;;;;;;5059441;28;19986;-77
2023/03/18 02:30:54;;;;;;;;;;;10.10;99.70;;;;;;5063526;28;20492;-77
2023/03/18 02:33:20;;;;;;;;;;;10.10;99.70;;;;;;5069337;28;20071;-76
2023/03/18 02:35:49;;;;;;;;;;;10.10;99.70;;;;;;5062105;28;19964;-77
2023/03/18 02:38:14;;;;;;;;;;;10.10;99.60;;;;;;5069461;28;19919;-77
2023/03/18 02:40:40;;;;;;;;;;;10.10;99.70;;;;;;5063262;28;19913;-77
2023/03/18 02:43:15;;;;;;;;;;;10.10;99.70;;;;;;5069410;28;19909;-77
2023/03/18 02:45:59;;;;;;;;;;;10.10;99.70;;;;;;5063365;28;20007;-77
2023/03/18 02:48:27;;;;;;;;;;;10.00;99.70;;;;;;5058933;28;19920;-77
2023/03/18 02:50:53;;;;;;;;;;;10.10;99.90;;;;;;5066046;28;20347;-77
2023/03/18 02:53:19;;;;;;;;;;;10.00;99.90;;;;;;5068680;28;19919;-76
2023/03/18 02:55:45;;;;;;;;;;;10.00;99.90;;;;;;5049442;28;19917;-77
2023/03/18 02:58:11;;;;;;;;;;;10.00;99.90;;;;;;5066638;28;19965;-76
2023/03/18 03:00:36;;;;;;;;;;;10.00;99.90;;;;;;5062814;28;19912;-76
2023/03/18 03:03:02;;;;;;;;;;;10.00;99.90;;;;;;5068648;28;19908;-76
2023/03/18 03:05:28;;;;;;;;;;;9.90;99.90;;;;;;5061435;28;19912;-77
2023/03/18 03:07:53;;;;;;;;;;;9.90;99.90;;;;;;5068534;28;19919;-76
2023/03/18 03:10:19;;;;;;;;;;;9.90;99.90;;;;;;5056698;28;19912;-77
2023/03/18 03:12:45;;;;;;;;;;;9.90;99.90;;;;;;5049859;28;19966;-76
2023/03/18 03:15:10;;;;;;;;;;;9.90;99.90;;;;;;5062518;28;19958;-77
2023/03/18 03:17:36;;;;;;;;;;;9.90;99.90;;;;;;5068603;28;19920;-76
2023/03/18 03:20:05;;;;;;;;;;;9.80;99.90;;;;;;5065587;28;20297;-76
2023/03/18 03:22:31;;;;;;;;;;;9.80;99.90;;;;;;5060271;28;19916;-76
2023/03/18 03:24:57;;;;;;;;;;;9.80;99.90;;;;;;5062507;28;20527;-76
2023/03/18 03:27:22;;;;;;;;;;;9.80;99.90;;;;;;5065517;28;19919;-77
2023/03/18 03:29:48;;;;;;;;;;;9.80;99.90;;;;;;5063222;28;19913;-77
2023/03/18 03:32:14;;;;;;;;;;;9.80;99.90;;;;;;5067383;28;19913;-76
2023/03/18 03:34:40;;;;;;;;;;;9.70;99.90;;;;;;5064131;28;19920;-76
2023/03/18 03:37:06;;;;;;;;;;;9.70;99.90;;;;;;5064564;28;20040;-76
2023/03/18 03:39:31;;;;;;;;;;;9.70;99.90;;;;;;5064996;28;19931;-76
2023/03/18 03:41:57;;;;;;;;;;;9.70;99.90;;;;;;5065269;28;19908;-76
2023/03/18 03:44:23;;;;;;;;;;;9.70;99.90;;;;;;5066320;28;19912;-76
2023/03/18 03:46:48;;;;;;;;;;;9.70;99.90;;;;;;5063986;28;19920;-76
2023/03/18 03:49:14;;;;;;;;;;;9.60;99.90;;;;;;5066668;28;19912;-76
2023/03/18 03:51:39;;;;;;;;;;;9.70;99.90;;;;;;5042548;28;19920;-77
2023/03/18 03:54:05;;;;;;;;;;;9.60;99.90;;;;;;5056437;28;19912;-76
2023/03/18 03:56:30;;;;;;;;;;;9.60;99.90;;;;;;5064090;28;19918;-76
2023/03/18 03:58:56;;;;;;;;;;;9.60;99.90;;;;;;5066983;28;19936;-76
2023/03/18 04:01:22;;;;;;;;;;;9.60;99.90;;;;;;5062211;28;19912;-76
2023/03/18 04:03:48;;;;;;;;;;;9.60;99.90;;;;;;5067841;28;19912;-76
2023/03/18 04:06:14;;;;;;;;;;;9.60;99.90;;;;;;5060628;28;19908;-76
2023/03/18 04:08:40;;;;;;;;;;;9.60;99.90;;;;;;5067817;28;19990;-76
2023/03/18 04:11:06;;;;;;;;;;;9.50;99.90;;;;;;5043215;28;19940;-76
2023/03/18 04:13:32;;;;;;;;;;;9.50;99.90;;;;;;5058352;28;19908;-76
2023/03/18 04:15:58;;;;;;;;;;;9.50;99.90;;;;;;5067561;28;20399;-76
2023/03/18 04:18:24;;;;;;;;;;;9.50;99.90;;;;;;5067816;28;20410;-76
2023/03/18 04:20:50;;;;;;;;;;;9.50;99.90;;;;;;5064673;28;19924;-76
2023/03/18 04:23:16;;;;;;;;;;;9.50;99.90;;;;;;5067507;28;20399;-76
2023/03/18 04:25:41;;;;;;;;;;;9.50;99.90;;;;;;5061668;28;19913;-76
2023/03/18 04:28:07;;;;;;;;;;;9.40;99.90;;;;;;5067516;28;19912;-76
2023/03/18 04:30:33;;;;;;;;;;;9.40;99.90;;;;;;5061819;28;20009;-76
2023/03/18 04:33:00;;;;;;;;;;;9.40;99.90;;;;;;5067610;28;19909;-76
2023/03/18 04:35:25;;;;;;;;;;;9.40;99.90;;;;;;5060484;28;20443;-76
2023/03/18 04:37:51;;;;;;;;;;;9.40;99.90;;;;;;5067447;28;19912;-76
2023/03/18 04:40:17;;;;;;;;;;;9.40;99.90;;;;;;5061038;28;20006;-76
2023/03/18 04:42:44;;;;;;;;;;;9.40;99.90;;;;;;5067037;28;20254;-76
2023/03/18 04:45:10;;;;;;;;;;;9.40;99.90;;;;;;5061383;28;19991;-76
2023/03/18 04:47:36;;;;;;;;;;;9.30;99.90;;;;;;5067258;28;19909;-76
2023/03/18 04:50:03;;;;;;;;;;;9.30;99.90;;;;;;5066694;28;19919;-76
2023/03/18 04:52:29;;;;;;;;;;;9.30;99.90;;;;;;5070910;28;19908;-76
2023/03/18 04:54:55;;;;;;;;;;;9.30;99.90;;;;;;5065080;28;19921;-76
2023/03/18 04:57:21;;;;;;;;;;;9.30;99.90;;;;;;5070827;28;19912;-75
2023/03/18 04:59:46;;;;;;;;;;;9.30;99.90;;;;;;5054539;28;20010;-76
2023/03/18 05:02:12;;;;;;;;;;;9.30;99.90;;;;;;5066273;28;19951;-76
2023/03/18 05:04:37;;;;;;;;;;;9.30;99.90;;;;;;5066835;28;20003;-76
2023/03/18 05:07:03;;;;;;;;;;;9.30;99.90;;;;;;5067475;28;19908;-76
2023/03/18 05:09:28;;;;;;;;;;;9.30;99.90;;;;;;5060460;28;19919;-76
2023/03/18 05:11:54;;;;;;;;;;;9.30;99.90;;;;;;5068084;28;19917;-76
2023/03/18 05:14:20;;;;;;;;;;;9.30;99.90;;;;;;5069704;28;20277;-76
2023/03/18 05:16:45;;;;;;;;;;;9.30;99.90;;;;;;5069497;28;19939;-76
2023/03/18 05:19:11;;;;;;;;;;;9.30;99.90;;;;;;5069566;28;20444;-76
2023/03/18 05:21:36;;;;;;;;;;;9.30;99.90;;;;;;5069101;28;19950;-76
2023/03/18 05:24:02;;;;;;;;;;;9.30;99.90;;;;;;5067283;28;19919;-76
2023/03/18 05:26:28;;;;;;;;;;;9.30;99.90;;;;;;5066289;28;19921;-76
2023/03/18 05:28:53;;;;;;;;;;;9.30;99.90;;;;;;5060650;28;20104;-76
2023/03/18 05:31:21;;;;;;;;;;;9.30;99.90;;;;;;5064537;28;20222;-76
2023/03/18 05:33:46;;;;;;;;;;;9.30;99.90;;;;;;5070450;28;20365;-76
2023/03/18 05:36:12;;;;;;;;;;;9.30;99.90;;;;;;5063225;28;20003;-76
2023/03/18 05:38:38;;;;;;;;;;;9.30;99.90;;;;;;5070358;28;19998;-76
2023/03/18 05:41:03;;;;;;;;;;;9.30;99.90;;;;;;5064654;28;19909;-76
2023/03/18 05:43:29;;;;;;;;;;;9.30;99.90;;;;;;5070650;28;19966;-76
2023/03/18 05:45:54;;;;;;;;;;;9.30;99.90;;;;;;5067892;28;19970;-76
2023/03/18 05:48:20;;;;;;;;;;;9.30;99.90;;;;;;5070206;28;20354;-76
2023/03/18 05:50:46;;;;;;;;;;;9.30;99.90;;;;;;5067929;28;19999;-76
2023/03/18 05:53:12;;;;;;;;;;;9.30;99.90;;;;;;5070206;28;20342;-76
2023/03/18 05:55:39;;;;;;;;;;;9.30;99.90;;;;;;5053029;28;20247;-76
2023/03/18 05:58:05;;;;;;;;;;;9.40;99.90;;;;;;5046396;28;19913;-76
2023/03/18 06:00:30;;;;;;;;;;;9.40;99.90;;;;;;5063513;28;19919;-76
2023/03/18 06:02:57;;;;;;;;;;;9.40;99.90;;;;;;5070031;28;19908;-76
2023/03/18 06:05:23;;;;;;;;;;;9.40;99.90;;;;;;5062997;28;19916;-76
2023/03/18 06:07:49;;;;;;;;;;;9.40;99.90;;;;;;5070151;28;19916;-76
2023/03/18 06:10:15;;;;;;;;;;;9.40;99.90;;;;;;5064715;28;19921;-76
2023/03/18 06:12:41;;;;;;;;;;;9.40;99.90;;;;;;5069920;28;19912;-76
2023/03/18 06:15:07;;;;;;;;;;;9.40;99.90;;;;;;5056645;28;19979;-77
2023/03/18 06:17:32;;;;;;;;;;;9.40;99.90;;;;;;5069691;28;19978;-76
2023/03/18 06:19:58;;;;;;;;;;;9.40;99.90;;;;;;5067593;28;19913;-76
2023/03/18 06:22:25;;;;;;;;;;;9.40;99.90;;;;;;5068774;28;20030;-76
2023/03/18 06:24:50;;;;;;;;;;;9.40;99.90;;;;;;5065412;28;20058;-76
2023/03/18 06:27:16;;;;;;;;;;;9.50;99.90;;;;;;5069417;28;19999;-76
2023/03/18 06:29:42;;;;;;;;;;;9.50;99.90;;;;;;5065650;28;20377;-76
2023/03/18 06:32:08;;;;;;;;;;;9.50;99.90;;;;;;5064092;28;20353;-76
2023/03/18 06:34:35;;;;;;;;;;;9.50;99.90;;;;;;5066388;28;20340;-76
2023/03/18 06:37:01;;;;;;;;;;;9.50;99.90;;;;;;5047604;28;19912;-77
2023/03/18 06:39:27;;;;;;;;;;;9.50;99.90;;;;;;5067323;28;19908;-76
2023/03/18 06:41:53;;;;;;;;;;;9.50;99.90;;;;;;5065967;28;20637;-76
2023/03/18 06:44:20;;;;;;;;;;;9.50;99.90;;;;;;5068116;28;19917;-76
2023/03/18 06:46:45;;;;;;;;;;;9.50;99.90;;;;;;5064780;28;20453;-76
2023/03/18 06:49:11;;;;;;;;;;;9.60;99.90;;;;;;5067911;28;19913;-76
2023/03/18 06:51:37;;;;;;;;;;;9.60;99.90;;;;;;5067717;28;19991;-76
2023/03/18 06:54:02;;;;;;;;;;;9.60;99.90;;;;;;5064984;28;19916;-76
2023/03/18 06:56:29;;;;;;;;;;;9.60;99.90;;;;;;5064343;28;19941;-76
2023/03/18 06:58:54;;;;;;;;;;;9.60;99.90;;;;;;5068560;28;19924;-76
2023/03/18 07:01:20;;;;;;;;;;;9.60;99.90;;;;;;5058031;28;19912;-76
2023/03/18 07:03:45;;;;;;;;;;;9.60;99.90;;;;;;5068876;28;19912;-76
2023/03/18 07:06:12;;;;;;;;;;;9.60;99.90;;;;;;5055218;28;19913;-76
2023/03/18 07:08:38;;;;;;;;;;;9.60;99.90;;;;;;5062778;28;19917;-76
2023/03/18 07:11:04;;;;;;;;;;;9.70;99.90;;;;;;5054490;28;20288;-76
2023/03/18 07:13:29;;;;;;;;;;;9.70;99.80;;;;;;5075336;28;20015;-76
2023/03/18 07:15:55;;;;;;;;;;;9.70;99.70;;;;;;5065324;28;19968;-77
2023/03/18 07:18:21;;;;;;;;;;;9.70;99.70;;;;;;5068348;28;19966;-76
2023/03/18 07:20:47;;;;;;;;;;;9.70;99.70;;;;;;5065501;28;19920;-76
2023/03/18 07:23:13;;;;;;;;;;;9.80;99.70;;;;;;5068480;28;20623;-76
2023/03/18 07:25:38;;;;;;;;;;;9.80;99.60;;;;;;5062937;28;19912;-77
2023/03/18 07:28:04;;;;;;;;;;;9.80;99.60;;;;;;5068708;28;19913;-76
2023/03/18 07:30:30;;;;;;;;;;;9.90;99.60;;;;;;5062939;28;19916;-76
2023/03/18 07:32:55;;;;;;;;;;;9.90;99.60;;;;;;5068336;28;19935;-77
2023/03/18 07:35:21;;;;;;;;;;;9.90;99.60;;;;;;5060979;28;20022;-77
2023/03/18 07:37:47;;;;;;;;;;;10.00;99.60;;;;;;5075238;28;19913;-77
2023/03/18 07:40:12;;;;;;;;;;;10.00;99.60;;;;;;5062587;28;19912;-76
2023/03/18 07:42:38;;;;;;;;;;;10.00;99.50;;;;;;5049534;28;20400;-76
2023/03/18 07:45:04;;;;;;;;;;;10.00;99.60;;;;;;5062584;28;19912;-76
2023/03/18 07:47:30;;;;;;;;;;;10.10;99.60;;;;;;5068223;28;19913;-76
2023/03/18 07:49:56;;;;;;;;;;;10.10;99.60;;;;;;5062262;28;19924;-77
2023/03/18 07:52:22;;;;;;;;;;;10.10;99.60;;;;;;5066747;28;20661;-77
2023/03/18 07:54:47;;;;;;;;;;;10.10;99.70;;;;;;5057476;28;19920;-77
2023/03/18 07:57:13;;;;;;;;;;;10.10;99.60;;;;;;5071851;28;19924;-77
2023/03/18 07:59:38;;;;;;;;;;;10.20;99.60;;;;;;5075637;28;19912;-77
2023/03/18 08:02:06;;;;;;;;;;;10.20;99.50;;;;;;5077106;28;19916;-77
2023/03/18 08:04:32;;;;;;;;;;;10.30;99.50;;;;;;5062088;28;19922;-77
2023/03/18 08:06:58;;;;;;;;;;;10.30;99.50;;;;;;5068730;28;19917;-77
2023/03/18 08:09:25;;;;;;;;;;;10.40;99.40;;;;;;5071795;28;20370;-77
2023/03/18 08:11:51;;;;;;;;;;;10.50;99.30;;;;;;5075264;28;20291;-77
2023/03/18 08:14:16;;;;;;;;;;;10.50;99.50;;;;;;5068923;28;19919;-77
2023/03/18 08:16:42;;;;;;;;;;;10.60;99.40;;;;;;5043922;28;19917;-77
2023/03/18 08:19:07;;;;;;;;;;;10.70;99.30;;;;;;5069697;28;20029;-77
2023/03/18 08:21:33;;;;;;;;;;;10.70;99.20;;;;;;5071843;28;20088;-78
2023/03/18 08:23:58;;;;;;;;;;;10.80;99.50;;;;;;5057980;28;19908;-77
2023/03/18 08:26:24;;;;;;;;;;;10.90;99.30;;;;;;5060117;28;19951;-77
2023/03/18 08:28:49;;;;;;;;;;;11.00;99.50;;;;;;5058244;28;20273;-77
2023/03/18 08:31:15;;;;;;;;;;;11.00;99.20;;;;;;5061333;28;19916;-78
2023/03/18 08:33:41;;;;;;;;;;;11.00;99.50;;;;;;5067667;28;19915;-77
2023/03/18 08:36:07;;;;;;;;;;;11.10;99.30;;;;;;5060301;28;19919;-77
2023/03/18 08:38:33;;;;;;;;;;;11.20;99.20;;;;;;5057831;28;19913;-77
2023/03/18 08:40:58;;;;;;;;;;;11.20;99.00;;;;;;5044002;28;20298;-77
2023/03/18 08:43:24;;;;;;;;;;;11.30;98.90;;;;;;5071118;28;20019;-77
2023/03/18 08:45:51;;;;;;;;;;;11.30;98.90;;;;;;5075023;28;20038;-78
2023/03/18 08:48:16;;;;;;;;;;;11.40;98.90;;;;;;5074638;28;19923;-77
2023/03/18 08:50:42;;;;;;;;;;;11.50;98.90;;;;;;5073745;28;19935;-77
2023/03/18 08:53:10;;;;;;;;;;;11.60;98.80;;;;;;5074496;28;20373;-77
2023/03/18 08:55:39;;;;;;;;;;;11.60;98.60;;;;;;5075735;28;19920;-77
2023/03/18 08:58:06;;;;;;;;;;;11.70;98.80;;;;;;5054856;28;19923;-77
2023/03/18 09:00:35;;;;;;;;;;;11.70;98.80;;;;;;5076440;28;19995;-77
2023/03/18 09:03:02;;;;;;;;;;;11.70;98.60;;;;;;5069112;28;19908;-78
2023/03/18 09:05:29;;;;;;;;;;;11.80;98.60;;;;;;5063599;28;20475;-77
2023/03/18 09:07:55;;;;;;;;;;;11.80;98.80;;;;;;5048431;28;19928;-78
2023/03/18 09:10:20;;;;;;;;;;;11.80;98.90;;;;;;5042979;28;20497;-77
2023/03/18 09:12:46;;;;;;;;;;;11.90;98.70;;;;;;5062350;28;19912;-78
2023/03/18 09:15:13;;;;;;;;;;;11.90;98.70;;;;;;5052740;28;19928;-77
2023/03/18 09:17:39;;;;;;;;;;;11.90;98.70;;;;;;5056696;28;19916;-78
2023/03/18 09:20:09;;;;;;;;;;;12.00;98.60;;;;;;5050315;28;19916;-78
2023/03/18 09:22:35;;;;;;;;;;;12.00;98.60;;;;;;5071692;28;20369;-77
2023/03/18 09:25:01;;;;;;;;;;;12.00;98.70;;;;;;5064364;28;19915;-78
2023/03/18 09:27:27;;;;;;;;;;;12.00;98.70;;;;;;5066794;28;20065;-78
2023/03/18 09:29:52;;;;;;;;;;;12.00;98.60;;;;;;5050775;28;19912;-78
2023/03/18 09:32:18;;;;;;;;;;;12.00;98.60;;;;;;5068714;28;20411;-78
2023/03/18 09:34:43;;;;;;;;;;;12.00;98.80;;;;;;5068386;28;19923;-78
2023/03/18 09:37:09;;;;;;;;;;;12.10;98.80;;;;;;5077671;28;19916;-77
2023/03/18 09:39:36;;;;;;;;;;;12.10;98.90;;;;;;5069945;28;20596;-77
2023/03/18 09:42:01;;;;;;;;;;;12.10;98.70;;;;;;5073418;28;20366;-77
2023/03/18 09:44:32;;;;;;;;;;;12.10;98.70;;;;;;5066232;28;19920;-78
2023/03/18 09:46:58;;;;;;;;;;;12.20;98.80;;;;;;5057835;28;19968;-78
2023/03/18 09:49:37;;;;;;;;;;;12.20;98.80;;;;;;5064685;28;19944;-78
2023/03/18 09:52:26;;;;;;;;;;;12.20;98.70;;;;;;5058723;28;20277;-78
2023/03/18 09:54:51;;;;;;;;;;;12.30;98.80;;;;;;5060944;28;20304;-78
2023/03/18 09:57:23;;;;;;;;;;;12.20;98.80;;;;;;5064355;28;19909;-78
2023/03/18 09:59:50;;;;;;;;;;;12.20;98.80;;;;;;5050906;28;19912;-78
2023/03/18 10:02:25;;;;;;;;;;;12.30;98.80;;;;;;5069763;28;19908;-78
2023/03/18 10:04:58;;;;;;;;;;;12.30;98.80;;;;;;5064864;28;19999;-78
2023/03/18 10:07:27;;;;;;;;;;;12.40;98.90;;;;;;5069018;28;20298;-78
2023/03/18 10:09:54;;;;;;;;;;;12.40;98.80;;;;;;5053379;28;20358;-77
2023/03/18 10:12:31;;;;;;;;;;;12.40;98.70;;;;;;5069510;28;19975;-78
2023/03/18 10:15:03;;;;;;;;;;;12.40;98.60;;;;;;5064669;28;20625;-77
2023/03/18 10:17:29;;;;;;;;;;;12.50;98.70;;;;;;5069506;28;19916;-78
2023/03/18 10:19:58;;;;;;;;;;;12.50;98.60;;;;;;5064641;28;19925;-78
2023/03/18 10:22:44;;;;;;;;;;;12.50;98.70;;;;;;5069567;28;19921;-77
2023/03/18 10:25:13;;;;;;;;;;;12.50;98.70;;;;;;5053098;28;19924;-78
2023/03/18 10:27:58;;;;;;;;;;;12.50;98.60;;;;;;5077011;28;19912;-78
2023/03/18 10:30:35;;;;;;;;;;;12.50;98.50;;;;;;5071521;28;19912;-78
2023/03/18 10:33:14;;;;;;;;;;;12.60;98.50;;;;;;5075397;28;20913;-78
2023/03/18 10:35:57;;;;;;;;;;;12.60;98.50;;;;;;5067049;28;19928;-78
2023/03/18 10:38:41;;;;;;;;;;;12.60;98.60;;;;;;5066238;28;20015;-78
2023/03/18 10:41:33;;;;;;;;;;;12.50;98.70;;;;;;5073368;28;19916;-77
2023/03/18 10:44:01;;;;;;;;;;;12.50;98.70;;;;;;5069415;28;19912;-78
2023/03/18 10:46:27;;;;;;;;;;;12.50;98.80;;;;;;5074547;28;19971;-78
2023/03/18 10:48:52;;;;;;;;;;;12.60;98.80;;;;;;5072856;28;20394;-78
2023/03/18 10:51:20;;;;;;;;;;;12.60;98.80;;;;;;5073550;28;19912;-78
2023/03/18 10:53:46;;;;;;;;;;;12.70;98.80;;;;;;5073306;28;19916;-78
2023/03/18 10:56:13;;;;;;;;;;;12.70;98.60;;;;;;5071387;28;19924;-78
2023/03/18 10:58:40;;;;;;;;;;;12.80;98.50;;;;;;5057218;28;19920;-77
2023/03/18 11:01:06;;;;;;;;;;;12.90;98.20;;;;;;5067529;28;19912;-78
2023/03/18 11:03:39;;;;;;;;;;;13.00;98.10;;;;;;5055399;28;19999;-78
2023/03/18 11:06:10;;;;;;;;;;;13.00;98.10;;;;;;5060815;28;20511;-78
2023/03/18 11:08:38;;;;;;;;;;;13.00;98.20;;;;;;5066228;28;20289;-78
2023/03/18 11:11:39;;;;;;;;;;;13.10;98.60;;;;;;5068439;28;19917;-78
2023/03/18 11:14:06;;;;;;;;;;;13.20;98.20;;;;;;5011646;28;20653;-78
2023/03/18 11:16:37;;;;;;;;;;;13.30;98.40;;;;;;5045523;28;20413;-78
2023/03/18 11:19:08;;;;;;;;;;;13.40;98.60;;;;;;5080606;28;19919;-78
2023/03/18 11:21:33;;;;;;;;;;;13.40;98.70;;;;;;5078466;28;20034;-77
2023/03/18 11:24:23;;;;;;;;;;;13.50;98.70;;;;;;5073169;28;20368;-77
2023/03/18 11:26:55;;;;;;;;;;;13.70;98.50;;;;;;5063023;28;20647;-78
2023/03/18 11:29:24;;;;;;;;;;;13.80;98.50;;;;;;5063916;28;19916;-77
2023/03/18 11:31:56;;;;;;;;;;;13.90;98.50;;;;;;5067963;28;19912;-77
2023/03/18 11:34:23;;;;;;;;;;;14.00;98.20;;;;;;5062718;28;20007;-77
2023/03/18 11:36:57;;;;;;;;;;;14.10;98.10;;;;;;5062815;28;19970;-78
2023/03/18 11:39:23;;;;;;;;;;;14.20;97.60;;;;;;5050889;28;20378;-77
2023/03/18 11:41:51;;;;;;;;;;;14.20;97.90;;;;;;5067559;28;20332;-78
2023/03/18 11:44:18;;;;;;;;;;;14.20;98.10;;;;;;5048015;28;19993;-78
2023/03/18 11:46:46;;;;;;;;;;;14.30;98.30;;;;;;5067962;28;19998;-78
2023/03/18 11:49:13;;;;;;;;;;;14.30;98.30;;;;;;5063219;28;19979;-78
2023/03/18 11:51:47;;;;;;;;;;;14.50;98.40;;;;;;5067911;28;19943;-78
2023/03/18 11:54:48;;;;;;;;;;;14.60;98.10;;;;;;5050632;28;19912;-77
2023/03/18 11:57:26;;;;;;;;;;;14.60;98.40;;;;;;5004232;28;19917;-78
2023/03/18 12:00:17;;;;;;;;;;;14.70;98.00;;;;;;5056953;28;19908;-78
2023/03/18 12:03:03;;;;;;;;;;;14.80;97.90;;;;;;5062806;28;19916;-77
2023/03/18 12:05:29;;;;;;;;;;;14.90;97.80;;;;;;5046054;28;19995;-78
2023/03/18 12:08:11;;;;;;;;;;;14.90;98.00;;;;;;5068217;28;20105;-78
2023/03/18 12:10:47;;;;;;;;;;;14.90;98.20;;;;;;5053845;28;19998;-78
2023/03/18 12:13:25;;;;;;;;;;;14.80;98.40;;;;;;5067724;28;20301;-78
2023/03/18 12:15:56;;;;;;;;;;;14.90;98.50;;;;;;5065286;28;20030;-78
2023/03/18 12:18:28;;;;;;;;;;;14.90;98.50;;;;;;5066981;28;19916;-78
2023/03/18 12:20:55;;;;;;;;;;;15.00;98.30;;;;;;5065277;28;19928;-77
2023/03/18 12:23:24;;;;;;;;;;;15.10;98.40;;;;;;5066723;28;20419;-78
2023/03/18 12:25:52;;;;;;;;;;;15.10;98.40;;;;;;5066311;28;19919;-78
2023/03/18 12:28:24;;;;;;;;;;;15.10;98.40;;;;;;5067038;28;20325;-78
2023/03/18 12:30:58;;;;;;;;;;;15.10;98.40;;;;;;5065537;28;19919;-78
2023/03/18 12:33:30;;;;;;;;;;;15.10;98.60;;;;;;5055692;28;20674;-78
2023/03/18 12:36:08;;;;;;;;;;;15.10;98.60;;;;;;5047220;28;19917;-78
2023/03/18 12:38:34;;;;;;;;;;;15.10;99.00;;;;;;5058100;28;19909;-77
2023/03/18 12:41:00;;;;;;;;;;;15.10;98.90;;;;;;5063458;28;19917;-78
2023/03/18 12:43:34;;;;;;;;;;;15.10;98.90;;;;;;5065220;28;19937;-78
2023/03/18 12:46:03;;;;;;;;;;;15.10;98.70;;;;;;5065717;28;19920;-78
2023/03/18 12:48:31;;;;;;;;;;;15.10;98.50;;;;;;5056626;28;19912;-78
2023/03/18 12:51:00;;;;;;;;;;;15.10;98.30;;;;;;5064106;28;19966;-78
2023/03/18 12:53:32;;;;;;;;;;;15.10;98.40;;;;;;5066465;28;19939;-78
2023/03/18 12:56:01;;;;;;;;;;;15.10;98.00;;;;;;5065671;28;19917;-78
2023/03/18 12:58:29;;;;;;;;;;;15.10;97.80;;;;;;5065219;28;19932;-78
2023/03/18 13:01:05;;;;;;;;;;;15.10;97.80;;;;;;5065139;28;19920;-78
2023/03/18 13:03:32;;;;;;;;;;;15.10;97.90;;;;;;5063854;28;20042;-78
2023/03/18 13:06:04;;;;;;;;;;;15.10;97.80;;;;;;5054607;28;19948;-78
2023/03/18 13:08:45;;;;;;;;;;;15.10;98.10;;;;;;5057376;28;19994;-78
2023/03/18 13:11:18;;;;;;;;;;;15.10;98.20;;;;;;5066467;28;19919;-78
2023/03/18 13:13:48;;;;;;;;;;;15.20;97.80;;;;;;5058839;28;20559;-78
2023/03/18 13:16:14;;;;;;;;;;;15.20;97.70;;;;;;5068717;28;19923;-78
2023/03/18 13:18:49;;;;;;;;;;;15.20;97.60;;;;;;5069481;28;19917;-78
2023/03/18 13:21:18;;;;;;;;;;;15.20;97.70;;;;;;5068380;28;20011;-78
2023/03/18 13:23:43;;;;;;;;;;;15.20;97.70;;;;;;5068839;28;20269;-78
2023/03/18 13:26:24;;;;;;;;;;;15.30;97.80;;;;;;5056114;28;19916;-78
2023/03/18 13:28:52;;;;;;;;;;;15.20;97.60;;;;;;5068059;28;19919;-77
2023/03/18 13:31:27;;;;;;;;;;;15.30;97.60;;;;;;5069004;28;19913;-78
2023/03/18 13:34:11;;;;;;;;;;;15.30;97.60;;;;;;5067792;28;19916;-78
2023/03/18 13:36:49;;;;;;;;;;;15.40;97.60;;;;;;5070131;28;19913;-78
2023/03/18 13:39:20;;;;;;;;;;;15.40;97.60;;;;;;5065954;28;20118;-78
2023/03/18 13:41:49;;;;;;;;;;;15.50;97.50;;;;;;5050784;28;19913;-78
2023/03/18 13:44:18;;;;;;;;;;;15.60;97.00;;;;;;5066075;28;19913;-78
2023/03/18 13:46:52;;;;;;;;;;;15.70;97.00;;;;;;5064304;28;19941;-78
2023/03/18 13:49:21;;;;;;;;;;;15.70;96.90;;;;;;5065989;28;19920;-78
2023/03/18 13:51:49;;;;;;;;;;;15.80;96.80;;;;;;5070328;28;20418;-78
2023/03/18 13:54:18;;;;;;;;;;;15.80;97.00;;;;;;5054484;28;19991;-77
2023/03/18 13:56:49;;;;;;;;;;;15.90;97.30;;;;;;5067135;28;19985;-77
2023/03/18 13:59:33;;;;;;;;;;;15.90;97.30;;;;;;5049965;28;19920;-78
2023/03/18 14:02:17;;;;;;;;;;;15.90;97.10;;;;;;5065651;28;19919;-78
2023/03/18 14:04:49;;;;;;;;;;;15.90;97.20;;;;;;5055216;28;19936;-78
2023/03/18 14:07:18;;;;;;;;;;;15.90;97.10;;;;;;5067935;28;19918;-78
2023/03/18 14:09:54;;;;;;;;;;;15.90;97.00;;;;;;5065211;28;20484;-78
2023/03/18 14:12:29;;;;;;;;;;;16.00;97.00;;;;;;5069688;28;20028;-78
2023/03/18 14:15:13;;;;;;;;;;;16.10;96.90;;;;;;5053839;28;19916;-78
2023/03/18 14:17:57;;;;;;;;;;;16.10;97.20;;;;;;5069036;28;20365;-77
2023/03/18 14:20:23;;;;;;;;;;;16.00;97.10;;;;;;5064810;28;20356;-78
2023/03/18 14:22:53;;;;;;;;;;;16.00;97.00;;;;;;5069159;28;19912;-78
2023/03/18 14:25:21;;;;;;;;;;;16.00;96.90;;;;;;5067142;28;19916;-78
2023/03/18 14:28:05;;;;;;;;;;;16.00;97.10;;;;;;5069777;28;19919;-78